Jackson Center, Ohio
Current Conditions -  °F | °C
As of 11:10 AM on Thursday 29 Jan 2015 (Local Time) from KEDJ Reporting Station
Overcast Overcast  
Wind Chill: 27°   Ceiling: 3500
Heat Index: 37°   Visibility: 10mi
Dew Point: 32°   Wind: 18mph
Humidity: 81%   Direction: 200°SSW
Pressure: 29.79"   Gusts: 39mph
Location:  40.44°N, 84.04°W
Report Text: KEDJ 291610Z AUTO 20016G34KT 10SM OVC035 03/00 A2979 RMK AO1
Loading
Personal Weather Stations






























Interactive Weather Map New forecast layout! Learn more

10-Day Weather Forecast

Advertisements
Track Severe Weather on mobile